createdAt,value
2023-04-23T00:01:50.716Z,100324.00
2023-04-23T00:04:18.626Z,100321.03
2023-04-23T00:06:47.932Z,100324.25
2023-04-23T00:09:16.798Z,100321.06
2023-04-23T00:11:43.791Z,100310.63
2023-04-23T00:14:11.452Z,100314.06
2023-04-23T00:16:39.954Z,100316.28
2023-04-23T00:19:06.773Z,100311.09
2023-04-23T00:21:33.760Z,100305.47
2023-04-23T00:24:00.267Z,100308.31
2023-04-23T00:26:26.833Z,100298.88
2023-04-23T00:28:54.107Z,100296.69
2023-04-23T00:31:22.572Z,100299.06
2023-04-23T00:33:49.047Z,100295.28
2023-04-23T00:36:15.626Z,100291.06
2023-04-23T00:38:42.220Z,100287.47
2023-04-23T00:41:08.937Z,100290.28
2023-04-23T00:43:35.520Z,100283.66
2023-04-23T00:46:02.303Z,100282.03
2023-04-23T00:48:29.307Z,100273.81
2023-04-23T00:51:06.565Z,100273.44
2023-04-23T00:53:34.082Z,100278.00
2023-04-23T00:56:03.186Z,100270.81
2023-04-23T00:58:29.976Z,100271.41
2023-04-23T01:00:56.890Z,100261.19
2023-04-23T01:03:26.324Z,100262.34
2023-04-23T01:05:53.138Z,100260.94
2023-04-23T01:08:22.412Z,100264.34
2023-04-23T01:10:49.737Z,100265.75
2023-04-23T01:13:16.846Z,100264.78
2023-04-23T01:15:44.977Z,100266.97
2023-04-23T01:18:12.822Z,100264.00
2023-04-23T01:20:39.422Z,100263.03
2023-04-23T01:23:06.513Z,100270.44
2023-04-23T01:25:33.144Z,100267.44
2023-04-23T01:27:59.965Z,100262.25
2023-04-23T01:30:27.658Z,100259.47
2023-04-23T01:32:57.793Z,100259.66
2023-04-23T01:35:25.955Z,100252.66
2023-04-23T01:37:54.179Z,100255.06
2023-04-23T01:40:21.215Z,100252.47
2023-04-23T01:42:50.965Z,100241.50
2023-04-23T01:45:20.349Z,100244.91
2023-04-23T01:47:50.433Z,100245.47
2023-04-23T01:50:17.008Z,100240.47
2023-04-23T01:52:44.825Z,100248.47
2023-04-23T01:55:11.400Z,100249.88
2023-04-23T01:57:38.158Z,100246.50
2023-04-23T02:00:11.458Z,100248.50
2023-04-23T02:02:42.147Z,100241.50
2023-04-23T02:05:15.009Z,100234.28
2023-04-23T02:07:42.152Z,100244.28
2023-04-23T02:10:09.514Z,100237.69
2023-04-23T02:12:37.328Z,100234.69
2023-04-23T02:15:06.597Z,100239.09
2023-04-23T02:17:33.329Z,100242.47
2023-04-23T02:19:59.964Z,100238.50
2023-04-23T02:22:26.771Z,100236.69
2023-04-23T02:24:53.305Z,100227.91
2023-04-23T02:27:20.858Z,100232.09
2023-04-23T02:29:48.630Z,100234.50
2023-04-23T02:32:15.613Z,100224.53
2023-04-23T02:34:42.389Z,100232.69
2023-04-23T02:37:09.242Z,100235.09
2023-04-23T02:39:35.765Z,100233.91
2023-04-23T02:42:02.271Z,100229.09
2023-04-23T02:44:28.739Z,100233.13
2023-04-23T02:46:56.258Z,100228.50
2023-04-23T02:49:22.892Z,100235.31
2023-04-23T02:51:49.467Z,100229.31
2023-04-23T02:54:16.945Z,100233.91
2023-04-23T02:56:43.792Z,100233.69
2023-04-23T02:59:10.333Z,100223.88
2023-04-23T03:01:36.831Z,100228.25
2023-04-23T03:04:04.892Z,100227.88
2023-04-23T03:06:31.953Z,100224.66
2023-04-23T03:08:58.414Z,100226.47
2023-04-23T03:11:24.924Z,100219.06
2023-04-23T03:13:51.387Z,100215.06
2023-04-23T03:16:17.920Z,100227.84
2023-04-23T03:18:44.452Z,100216.47
2023-04-23T03:21:11.039Z,100216.84
2023-04-23T03:23:37.504Z,100223.84
2023-04-23T03:26:04.202Z,100212.03
2023-04-23T03:28:31.232Z,100214.03
2023-04-23T03:30:57.767Z,100215.44
2023-04-23T03:33:24.303Z,100206.81
2023-04-23T03:35:50.853Z,100209.78
2023-04-23T03:38:17.411Z,100207.78
2023-04-23T03:40:44.961Z,100211.75
2023-04-23T03:43:11.465Z,100218.97
2023-04-23T03:45:37.965Z,100217.78
2023-04-23T03:48:04.698Z,100213.19
2023-04-23T03:50:34.370Z,100215.81
2023-04-23T03:53:01.158Z,100211.84
2023-04-23T03:55:27.605Z,100211.88
2023-04-23T03:57:54.108Z,100210.28
2023-04-23T04:00:20.768Z,100213.28
2023-04-23T04:02:47.426Z,100213.88
2023-04-23T04:05:14.198Z,100212.72
2023-04-23T04:07:41.283Z,100219.09
2023-04-23T04:10:08.107Z,100210.47
2023-04-23T04:12:34.614Z,100212.31
2023-04-23T04:15:02.932Z,100213.88
2023-04-23T04:17:29.417Z,100214.72
2023-04-23T04:19:56.012Z,100218.13
2023-04-23T04:22:22.591Z,100220.72
2023-04-23T04:24:52.020Z,100218.09
2023-04-23T04:27:19.043Z,100218.91
2023-04-23T04:29:45.542Z,100219.28
2023-04-23T04:32:13.730Z,100217.44
2023-04-23T04:34:40.711Z,100217.03
2023-04-23T04:37:07.754Z,100216.19
2023-04-23T04:39:34.319Z,100220.94
2023-04-23T04:42:02.845Z,100214.31
2023-04-23T04:44:30.436Z,100214.22
2023-04-23T04:46:57.074Z,100209.91
2023-04-23T04:49:23.942Z,100209.78
2023-04-23T04:51:52.567Z,100213.38
2023-04-23T04:54:19.078Z,100207.66
2023-04-23T04:56:45.561Z,100208.78
2023-04-23T04:59:12.133Z,100199.59
2023-04-23T05:01:38.690Z,100202.28
2023-04-23T05:04:05.576Z,100202.28
2023-04-23T05:06:33.005Z,100194.59
2023-04-23T05:08:59.548Z,100198.09
2023-04-23T05:11:26.061Z,100189.38
2023-04-23T05:13:52.585Z,100182.47
2023-04-23T05:16:19.485Z,100186.41
2023-04-23T05:18:46.661Z,100179.75
2023-04-23T05:21:15.742Z,100176.59
2023-04-23T05:23:42.285Z,100173.34
2023-04-23T05:26:08.913Z,100167.91
2023-04-23T05:28:35.412Z,100177.00
2023-04-23T05:31:02.127Z,100174.50
2023-04-23T05:33:33.517Z,100171.97
2023-04-23T05:36:03.111Z,100170.66
2023-04-23T05:38:29.748Z,100167.44
2023-04-23T05:40:56.289Z,100170.44
2023-04-23T05:43:22.850Z,100168.09
2023-04-23T05:45:49.309Z,100157.66
2023-04-23T05:48:16.001Z,100161.16
2023-04-23T05:50:42.713Z,100155.81
2023-04-23T05:53:09.284Z,100165.97
2023-04-23T05:55:36.009Z,100161.63
2023-04-23T05:58:02.826Z,100166.44
2023-04-23T06:00:29.529Z,100160.50
2023-04-23T06:02:56.322Z,100166.00
2023-04-23T06:05:23.084Z,100157.91
2023-04-23T06:07:49.876Z,100147.22
2023-04-23T06:10:16.467Z,100154.09
2023-04-23T06:12:43.064Z,100148.94
2023-04-23T06:15:10.238Z,100149.56
2023-04-23T06:17:37.543Z,100141.88
2023-04-23T06:20:05.232Z,100139.31
2023-04-23T06:22:37.326Z,100137.53
2023-04-23T06:25:04.595Z,100129.06
2023-04-23T06:27:32.643Z,100130.47
2023-04-23T06:29:59.278Z,100129.13
2023-04-23T06:32:25.849Z,100133.47
2023-04-23T06:35:00.727Z,100134.47
2023-04-23T06:37:29.707Z,100138.72
2023-04-23T06:39:56.577Z,100140.38
2023-04-23T06:42:23.190Z,100146.03
2023-04-23T06:44:51.893Z,100139.13
2023-04-23T06:47:20.914Z,100136.38
2023-04-23T06:49:47.573Z,100139.28
2023-04-23T06:52:14.411Z,100138.63
2023-04-23T06:54:41.264Z,100134.97
2023-04-23T06:57:07.910Z,100131.53
2023-04-23T06:59:34.517Z,100124.47
2023-04-23T07:02:00.996Z,100119.41
2023-04-23T07:04:27.634Z,100119.84
2023-04-23T07:06:54.322Z,100119.72
2023-04-23T07:09:20.986Z,100111.09
2023-04-23T07:11:47.678Z,100111.09
2023-04-23T07:14:14.385Z,100116.41
2023-04-23T07:16:40.964Z,100112.28
2023-04-23T07:19:07.652Z,100116.16
2023-04-23T07:21:34.399Z,100112.28
2023-04-23T07:24:06.679Z,100114.13
2023-04-23T07:26:34.385Z,100106.75
2023-04-23T07:29:01.429Z,100110.25
2023-04-23T07:31:28.622Z,100106.06
2023-04-23T07:33:56.248Z,100106.88
2023-04-23T07:36:23.267Z,100100.09
2023-04-23T07:38:51.176Z,100105.38
2023-04-23T07:41:17.966Z,100098.25
2023-04-23T07:43:44.862Z,100095.06
2023-04-23T07:46:11.887Z,100091.91
2023-04-23T07:48:40.458Z,100095.31
2023-04-23T07:51:07.034Z,100088.75
2023-04-23T07:53:33.700Z,100090.66
2023-04-23T07:56:00.572Z,100098.03
2023-04-23T07:58:27.190Z,100091.69
2023-04-23T08:00:53.895Z,100091.88
2023-04-23T08:03:20.765Z,100083.25
2023-04-23T08:05:47.664Z,100093.72
2023-04-23T08:08:14.374Z,100087.75
2023-04-23T08:10:41.421Z,100082.66
2023-04-23T08:13:08.422Z,100082.59
2023-04-23T08:15:34.946Z,100074.53
2023-04-23T08:18:01.549Z,100073.69
2023-04-23T08:20:28.137Z,100072.81
2023-04-23T08:22:55.687Z,100077.00
2023-04-23T08:25:22.502Z,100075.78
2023-04-23T08:27:49.200Z,100070.16
2023-04-23T08:30:15.756Z,100076.25
2023-04-23T08:32:42.397Z,100075.47
2023-04-23T08:35:09.675Z,100081.53
2023-04-23T08:37:36.372Z,100075.97
2023-04-23T08:40:02.981Z,100066.75
2023-04-23T08:43:01.459Z,100063.38
2023-04-23T08:45:29.442Z,100051.50
2023-04-23T08:48:02.488Z,100061.00
2023-04-23T08:50:29.996Z,100050.44
2023-04-23T08:52:58.092Z,100051.75
2023-04-23T08:55:25.328Z,100056.47
2023-04-23T08:57:52.266Z,100043.63
2023-04-23T09:00:21.436Z,100044.13
2023-04-23T09:02:49.061Z,100035.19
2023-04-23T09:05:16.394Z,100031.72
2023-04-23T09:07:44.161Z,100032.72
2023-04-23T09:10:12.891Z,100025.88
2023-04-23T09:12:43.815Z,100021.72
2023-04-23T09:15:11.898Z,100022.41
2023-04-23T09:17:41.195Z,100018.69
2023-04-23T09:20:09.741Z,100019.88
2023-04-23T09:22:47.577Z,100021.97
2023-04-23T09:25:19.542Z,100021.97
2023-04-23T09:27:47.384Z,100015.50
2023-04-23T09:30:14.765Z,100010.28
2023-04-23T09:32:43.052Z,100007.81
2023-04-23T09:35:15.185Z,100000.22
2023-04-23T09:37:43.214Z,99997.25
2023-04-23T09:40:13.324Z,99981.81
2023-04-23T09:42:40.134Z,100000.13
2023-04-23T09:45:08.695Z,99988.88
2023-04-23T09:47:40.592Z,99991.56
2023-04-23T09:50:10.431Z,99988.09
2023-04-23T09:52:41.025Z,99984.16
2023-04-23T09:55:08.612Z,99982.78
2023-04-23T09:57:40.509Z,99972.97
2023-04-23T10:00:19.191Z,99973.75
2023-04-23T10:02:48.868Z,99975.97
2023-04-23T10:05:24.898Z,99979.00
2023-04-23T10:07:56.409Z,99972.16
2023-04-23T10:10:24.665Z,99976.44
2023-04-23T10:12:57.372Z,99976.38
2023-04-23T10:15:26.624Z,99964.97
2023-04-23T10:17:54.428Z,99968.78
2023-04-23T10:20:22.769Z,99960.84
2023-04-23T10:22:50.008Z,99972.16
2023-04-23T10:25:19.394Z,99973.44
2023-04-23T10:27:52.721Z,99969.34
2023-04-23T10:30:20.855Z,99969.78
2023-04-23T10:32:50.024Z,99971.38
2023-04-23T10:35:16.800Z,99971.09
2023-04-23T10:37:46.499Z,99980.06
2023-04-23T10:40:16.537Z,99977.09
2023-04-23T10:42:44.371Z,99975.56
2023-04-23T10:45:25.605Z,99967.06
2023-04-23T10:47:57.183Z,99968.66
2023-04-23T10:50:28.938Z,99969.41
2023-04-23T10:52:57.661Z,99971.88
2023-04-23T10:55:32.802Z,99970.00
2023-04-23T10:58:07.048Z,99970.22
2023-04-23T11:00:45.995Z,99973.53
2023-04-23T11:03:43.508Z,99972.09
2023-04-23T11:06:15.778Z,99972.22
2023-04-23T11:08:53.840Z,99968.91
2023-04-23T11:11:38.554Z,99974.84
2023-04-23T11:14:14.352Z,99972.00
2023-04-23T11:16:41.232Z,99978.25
2023-04-23T11:19:17.323Z,99969.72
2023-04-23T11:22:02.681Z,99964.00
2023-04-23T11:24:42.788Z,99970.94
2023-04-23T11:27:15.030Z,99957.88
2023-04-23T11:29:43.690Z,99966.56
2023-04-23T11:32:13.454Z,99961.66
2023-04-23T11:34:43.956Z,99961.78
2023-04-23T11:37:12.201Z,99959.34
2023-04-23T11:39:41.258Z,99963.84
2023-04-23T11:42:20.397Z,99961.31
2023-04-23T11:44:49.037Z,99961.59
2023-04-23T11:47:19.101Z,99967.97
2023-04-23T11:49:47.058Z,99957.47
2023-04-23T11:52:16.009Z,99960.00
2023-04-23T11:54:42.660Z,99961.69
2023-04-23T11:57:10.590Z,99959.34
2023-04-23T11:59:38.033Z,99964.03
2023-04-23T12:02:09.322Z,99964.69
2023-04-23T12:04:38.193Z,99964.53
2023-04-23T12:07:16.029Z,99971.97
2023-04-23T12:09:49.962Z,99966.16
2023-04-23T12:12:16.829Z,99972.78
2023-04-23T12:14:46.242Z,99981.59
2023-04-23T12:17:12.748Z,99986.69
2023-04-23T12:19:40.700Z,99984.34
2023-04-23T12:22:08.644Z,99989.34
2023-04-23T12:24:51.733Z,99991.22
2023-04-23T12:27:22.516Z,99992.72
2023-04-23T12:29:58.941Z,99994.97
2023-04-23T12:32:27.050Z,99985.97
2023-04-23T12:34:56.179Z,99993.75
2023-04-23T12:37:28.626Z,99994.00
2023-04-23T12:39:56.674Z,99989.53
2023-04-23T12:42:23.614Z,99982.38
2023-04-23T12:44:51.706Z,99994.53
2023-04-23T12:47:20.853Z,99993.28
2023-04-23T12:49:53.076Z,99991.63
2023-04-23T12:52:20.124Z,100006.34
2023-04-23T12:54:46.713Z,99994.97
2023-04-23T12:57:17.418Z,99996.84
2023-04-23T12:59:44.960Z,100002.22
2023-04-23T13:02:12.203Z,99995.03
2023-04-23T13:04:38.840Z,100000.91
2023-04-23T13:07:06.378Z,99997.56
2023-04-23T13:09:33.029Z,99993.06
2023-04-23T13:12:00.388Z,99997.75
2023-04-23T13:14:27.945Z,99989.06
2023-04-23T13:16:54.557Z,99993.38
2023-04-23T13:19:21.138Z,99993.09
2023-04-23T13:21:47.639Z,99979.31
2023-04-23T13:24:14.178Z,99997.06
2023-04-23T13:26:40.720Z,99989.69
2023-04-23T13:29:07.453Z,99981.53
2023-04-23T13:31:34.171Z,99983.41
2023-04-23T13:34:02.902Z,99981.19
2023-04-23T13:36:29.530Z,99977.34
2023-04-23T13:38:56.192Z,99979.16
2023-04-23T13:41:22.889Z,99984.13
2023-04-23T13:43:49.554Z,99985.16
2023-04-23T13:46:16.887Z,99977.09
2023-04-23T13:48:43.431Z,99978.47
2023-04-23T13:51:21.827Z,99976.38
2023-04-23T13:53:56.747Z,99973.25
2023-04-23T13:56:23.259Z,99982.00
2023-04-23T13:58:53.046Z,99980.34
2023-04-23T14:01:19.691Z,99994.81
2023-04-23T14:03:47.495Z,99995.78
2023-04-23T14:06:16.125Z,100009.94
2023-04-23T14:08:42.698Z,100010.41
2023-04-23T14:11:09.495Z,100007.88
2023-04-23T14:13:37.294Z,99998.94
2023-04-23T14:16:03.990Z,100004.78
2023-04-23T14:18:30.704Z,100003.75
2023-04-23T14:20:57.281Z,100003.66
2023-04-23T14:23:24.023Z,99998.38
2023-04-23T14:25:59.584Z,99995.66
2023-04-23T14:28:40.885Z,99996.13
2023-04-23T14:31:07.541Z,99987.63
2023-04-23T14:33:34.086Z,99990.22
2023-04-23T14:36:00.636Z,99984.31
2023-04-23T14:38:30.286Z,99980.31
2023-04-23T14:40:57.035Z,99977.69
2023-04-23T14:43:23.601Z,99985.31
2023-04-23T14:45:51.088Z,99978.75
2023-04-23T14:48:17.713Z,99981.16
2023-04-23T14:50:44.260Z,99972.91
2023-04-23T14:53:10.916Z,99972.50
2023-04-23T14:55:39.971Z,99979.88
2023-04-23T14:58:06.581Z,99984.06
2023-04-23T15:00:33.864Z,99981.63
2023-04-23T15:03:02.790Z,99976.19
2023-04-23T15:05:29.641Z,99966.56
2023-04-23T15:07:56.283Z,99975.47
2023-04-23T15:10:23.503Z,99972.41
2023-04-23T15:13:03.450Z,99973.09
2023-04-23T15:15:49.540Z,99980.03
2023-04-23T15:18:16.628Z,99979.75
2023-04-23T15:20:44.491Z,99982.16
2023-04-23T15:23:11.323Z,99984.91
2023-04-23T15:25:39.242Z,99984.66
2023-04-23T15:28:07.078Z,99985.00
2023-04-23T15:30:33.661Z,99987.66
2023-04-23T15:33:00.319Z,99981.38
2023-04-23T15:35:27.917Z,99982.44
2023-04-23T15:37:54.764Z,99977.22
2023-04-23T15:40:21.464Z,99979.06
2023-04-23T15:42:49.958Z,99980.13
2023-04-23T15:45:17.140Z,99981.19
2023-04-23T15:47:44.050Z,99981.44
2023-04-23T15:50:11.437Z,99992.47
2023-04-23T15:52:38.975Z,99993.03
2023-04-23T15:55:06.390Z,100008.59
2023-04-23T15:57:33.050Z,100001.78
2023-04-23T15:59:59.682Z,100005.75
2023-04-23T16:02:27.262Z,99992.88
2023-04-23T16:04:53.949Z,99992.06
2023-04-23T16:07:22.067Z,99987.59
2023-04-23T16:09:50.103Z,99997.59
2023-04-23T16:12:18.110Z,99992.06
2023-04-23T16:14:45.804Z,99997.34
2023-04-23T16:17:12.759Z,99987.06
2023-04-23T16:19:39.656Z,99993.91
2023-04-23T16:22:09.582Z,99990.47
2023-04-23T16:24:36.281Z,99990.22
2023-04-23T16:27:02.989Z,99980.75
2023-04-23T16:29:29.584Z,99976.50
2023-04-23T16:31:56.118Z,99974.41
2023-04-23T16:34:22.756Z,99981.78
2023-04-23T16:36:49.394Z,99987.84
2023-04-23T16:39:16.287Z,99982.84
2023-04-23T16:41:42.772Z,99982.56
2023-04-23T16:44:09.357Z,99978.38
2023-04-23T16:46:36.032Z,99972.56
2023-04-23T16:49:02.902Z,99971.75
2023-04-23T16:51:33.253Z,99966.75
2023-04-23T16:53:59.851Z,99975.44
2023-04-23T16:56:26.678Z,99976.50
2023-04-23T16:58:53.308Z,99972.03
2023-04-23T17:01:20.031Z,99967.53
2023-04-23T17:03:47.153Z,99967.53
2023-04-23T17:06:30.976Z,99968.59
2023-04-23T17:09:01.912Z,99973.28
2023-04-23T17:11:29.749Z,99968.78
2023-04-23T17:13:57.297Z,99966.63
2023-04-23T17:16:27.795Z,99969.50
2023-04-23T17:18:54.985Z,99971.56
2023-04-23T17:21:21.806Z,99970.47
2023-04-23T17:23:48.402Z,99962.28
2023-04-23T17:26:15.130Z,99958.25
2023-04-23T17:28:41.637Z,99960.31
2023-04-23T17:31:08.763Z,99965.53
2023-04-23T17:33:35.937Z,99959.47
2023-04-23T17:36:08.000Z,99964.94
2023-04-23T17:38:35.971Z,99951.78
2023-04-23T17:41:04.110Z,99947.03
2023-04-23T17:43:35.032Z,99948.34
2023-04-23T17:46:02.354Z,99951.97
2023-04-23T17:48:29.857Z,99939.88
2023-04-23T17:50:56.669Z,99943.50
2023-04-23T17:53:25.116Z,99948.13
2023-04-23T17:55:52.070Z,99945.97
2023-04-23T17:58:19.343Z,99945.97
2023-04-23T18:00:46.210Z,99948.84
2023-04-23T18:03:16.684Z,99955.38
2023-04-23T18:05:43.511Z,99951.41
2023-04-23T18:08:10.004Z,99949.28
2023-04-23T18:10:36.800Z,99960.59
2023-04-23T18:13:04.115Z,99959.31
2023-04-23T18:15:33.434Z,99966.38
2023-04-23T18:18:00.184Z,99964.81
2023-04-23T18:20:27.020Z,99973.47
2023-04-23T18:22:56.367Z,99969.25
2023-04-23T18:25:25.180Z,99964.81
2023-04-23T18:27:51.917Z,99965.28
2023-04-23T18:30:23.039Z,99962.13
2023-04-23T18:32:55.677Z,99973.41
2023-04-23T18:35:22.236Z,99972.88
2023-04-23T18:37:54.603Z,99976.31
2023-04-23T18:40:21.384Z,99978.94
2023-04-23T18:42:48.122Z,99974.72
2023-04-23T18:45:15.044Z,99971.06
2023-04-23T18:47:51.854Z,99980.75
2023-04-23T18:50:29.700Z,99972.41
2023-04-23T18:52:56.324Z,99977.16
2023-04-23T18:55:23.158Z,99971.13
2023-04-23T18:57:49.988Z,99969.84
2023-04-23T19:00:17.307Z,99974.59
2023-04-23T19:02:46.919Z,99978.78
2023-04-23T19:05:13.832Z,99979.59
2023-04-23T19:07:42.386Z,99981.41
2023-04-23T19:10:13.264Z,99974.34
2023-04-23T19:12:40.085Z,99967.22
2023-04-23T19:15:07.273Z,99971.38
2023-04-23T19:17:35.113Z,99969.25
2023-04-23T19:20:02.176Z,99975.53
2023-04-23T19:22:29.134Z,99968.47
2023-04-23T19:24:55.779Z,99971.88
2023-04-23T19:27:22.562Z,99971.09
2023-04-23T19:29:49.401Z,99957.13
2023-04-23T19:32:16.176Z,99957.03
2023-04-23T19:34:42.882Z,99962.53
2023-04-23T19:37:09.454Z,99959.41
2023-04-23T19:39:36.243Z,99956.75
2023-04-23T19:42:03.399Z,99961.69
2023-04-23T19:44:30.451Z,99963.00
2023-04-23T19:46:57.091Z,99963.97
2023-04-23T19:49:31.215Z,99964.47
2023-04-23T19:51:58.981Z,99959.19
2023-04-23T19:54:26.221Z,99958.06
2023-04-23T19:56:53.056Z,99954.69
2023-04-23T19:59:22.409Z,99957.53
2023-04-23T20:01:49.111Z,99958.06
2023-04-23T20:04:16.261Z,99957.81
2023-04-23T20:06:43.364Z,99961.50
2023-04-23T20:09:18.528Z,99949.97
2023-04-23T20:11:46.525Z,99949.47
2023-04-23T20:14:14.028Z,99955.28
2023-04-23T20:16:41.810Z,99952.16
2023-04-23T20:19:12.330Z,99958.72
2023-04-23T20:21:42.960Z,99955.06
2023-04-23T20:24:21.505Z,99948.53
2023-04-23T20:26:49.227Z,99956.41
2023-04-23T20:29:16.021Z,99947.69
2023-04-23T20:31:42.845Z,99941.09
2023-04-23T20:34:10.971Z,99941.91
2023-04-23T20:36:39.010Z,99948.47
2023-04-23T20:39:05.704Z,99948.78
2023-04-23T20:41:36.984Z,99951.94
2023-04-23T20:44:07.402Z,99942.00
2023-04-23T20:46:34.150Z,99944.88
2023-04-23T20:49:03.221Z,99940.09
2023-04-23T20:51:33.973Z,99935.34
2023-04-23T20:54:01.517Z,99932.69
2023-04-23T20:56:29.099Z,99927.13
2023-04-23T20:58:57.474Z,99925.00
2023-04-23T21:01:26.217Z,99918.16
2023-04-23T21:03:53.665Z,99926.78
2023-04-23T21:06:21.627Z,99921.50
2023-04-23T21:08:55.125Z,99918.00
2023-04-23T21:11:22.280Z,99911.66
2023-04-23T21:13:48.946Z,99914.44
2023-04-23T21:16:15.609Z,99908.31
2023-04-23T21:18:43.999Z,99907.94
2023-04-23T21:21:12.104Z,99906.53
2023-04-23T21:23:40.166Z,99903.78
2023-04-23T21:26:08.462Z,99901.56
2023-04-23T21:28:39.200Z,99896.94
2023-04-23T21:31:12.319Z,99906.00
2023-04-23T21:33:38.940Z,99899.63
2023-04-23T21:36:06.053Z,99899.00
2023-04-23T21:38:33.423Z,99893.69
2023-04-23T21:41:01.284Z,99892.03
2023-04-23T21:43:29.381Z,99890.84
2023-04-23T21:45:56.225Z,99894.91
2023-04-23T21:48:23.123Z,99893.47
2023-04-23T21:50:50.012Z,99892.38
2023-04-23T21:53:16.687Z,99900.94
2023-04-23T21:55:43.197Z,99898.00
2023-04-23T22:00:39.417Z,99887.47
2023-04-23T22:03:06.130Z,99884.53
2023-04-23T22:05:32.942Z,99878.34
2023-04-23T22:07:59.524Z,99875.31
2023-04-23T22:10:26.528Z,99880.19
2023-04-23T22:12:53.200Z,99880.34
2023-04-23T22:15:20.678Z,99876.09
2023-04-23T22:17:50.474Z,99881.75
2023-04-23T22:20:20.122Z,99874.16
2023-04-23T22:22:46.984Z,99872.81
2023-04-23T22:25:13.597Z,99869.16
2023-04-23T22:27:43.323Z,99871.78
2023-04-23T22:30:11.183Z,99864.50
2023-04-23T22:32:38.719Z,99868.44
2023-04-23T22:35:07.217Z,99868.69
2023-04-23T22:37:34.716Z,99866.53
2023-04-23T22:40:01.644Z,99864.31
2023-04-23T22:42:28.436Z,99857.97
2023-04-23T22:44:55.062Z,99849.94
2023-04-23T22:47:22.455Z,99857.72
2023-04-23T22:49:49.493Z,99858.19
2023-04-23T22:52:16.820Z,99856.56
2023-04-23T22:54:43.978Z,99860.47
2023-04-23T22:57:11.580Z,99851.81
2023-04-23T22:59:41.576Z,99854.75
2023-04-23T23:02:08.380Z,99846.13
2023-04-23T23:04:37.826Z,99853.72
2023-04-23T23:07:08.265Z,99848.81
2023-04-23T23:09:35.208Z,99836.88
2023-04-23T23:12:03.430Z,99841.94
2023-04-23T23:14:31.809Z,99848.63
2023-04-23T23:16:58.759Z,99841.75
2023-04-23T23:19:27.915Z,99841.34
2023-04-23T23:21:54.525Z,99844.03
2023-04-23T23:24:22.164Z,99841.28
2023-04-23T23:26:49.259Z,99839.25
2023-04-23T23:29:16.248Z,99839.81
2023-04-23T23:31:43.030Z,99825.22
2023-04-23T23:34:09.594Z,99814.97
2023-04-23T23:36:36.155Z,99815.03
2023-04-23T23:39:02.948Z,99817.97
2023-04-23T23:41:29.429Z,99824.31
2023-04-23T23:43:55.980Z,99824.38
2023-04-23T23:46:22.704Z,99814.22
2023-04-23T23:48:49.593Z,99811.38
2023-04-23T23:51:16.340Z,99818.22
2023-04-23T23:53:42.954Z,99823.69
2023-04-23T23:56:09.559Z,99815.03
2023-04-23T23:58:36.567Z,99809.56
